createdAt,value
2022-08-11T00:05:09.929Z,88.60
2022-08-11T00:09:13.744Z,89.70
2022-08-11T00:13:17.176Z,89.50
2022-08-11T00:17:20.228Z,89.00
2022-08-11T00:22:01.832Z,88.30
2022-08-11T00:25:50.144Z,88.50
2022-08-11T00:29:56.127Z,89.00
2022-08-11T00:34:00.571Z,88.60
2022-08-11T00:38:05.281Z,89.30
2022-08-11T00:42:17.200Z,89.90
2022-08-11T00:46:30.432Z,90.10
2022-08-11T00:50:42.075Z,90.80
2022-08-11T00:54:55.999Z,90.40
2022-08-11T00:59:34.489Z,90.30
2022-08-11T01:03:50.326Z,90.40
2022-08-11T01:08:11.761Z,90.60
2022-08-11T01:12:35.932Z,90.70
2022-08-11T01:16:50.135Z,90.80
2022-08-11T01:21:07.817Z,90.20
2022-08-11T01:25:29.463Z,89.40
2022-08-11T01:29:59.686Z,90.30
2022-08-11T01:34:26.564Z,89.90
2022-08-11T01:38:59.587Z,89.70
2022-08-11T01:43:39.032Z,89.70
2022-08-11T01:47:52.461Z,90.40
2022-08-11T01:52:03.516Z,90.60
2022-08-11T01:56:28.180Z,90.30
2022-08-11T02:00:32.550Z,90.60
2022-08-11T02:04:37.411Z,90.80
2022-08-11T02:08:50.604Z,90.60
2022-08-11T02:12:56.746Z,90.50
2022-08-11T02:17:05.331Z,90.90
2022-08-11T02:21:29.893Z,91.40
2022-08-11T02:25:35.521Z,91.00
2022-08-11T02:29:44.943Z,90.40
2022-08-11T02:33:49.146Z,90.70
2022-08-11T02:37:54.769Z,91.30
2022-08-11T02:42:33.403Z,91.10
2022-08-11T02:46:47.179Z,90.90
2022-08-11T02:50:52.400Z,91.00
2022-08-11T02:55:02.701Z,90.30
2022-08-11T02:59:26.589Z,90.30
2022-08-11T03:03:35.692Z,90.60
2022-08-11T03:07:43.411Z,91.20
2022-08-11T03:12:09.307Z,91.30
2022-08-11T03:16:34.937Z,92.00
2022-08-11T03:20:42.927Z,91.70
2022-08-11T03:24:53.291Z,91.60
2022-08-11T03:29:06.816Z,92.00
2022-08-11T03:33:34.755Z,91.90
2022-08-11T03:37:51.948Z,91.70
2022-08-11T03:42:03.814Z,91.40
2022-08-11T03:46:11.448Z,92.00
2022-08-11T03:50:24.791Z,91.50
2022-08-11T03:54:38.635Z,91.40
2022-08-11T03:58:56.617Z,91.10
2022-08-11T04:03:13.510Z,91.50
2022-08-11T04:07:25.547Z,91.20
2022-08-11T04:11:43.197Z,91.00
2022-08-11T04:16:11.625Z,90.90
2022-08-11T04:20:24.122Z,91.00
2022-08-11T04:24:50.408Z,90.60
2022-08-11T04:29:02.089Z,90.40
2022-08-11T04:33:32.359Z,90.90
2022-08-11T04:37:57.136Z,91.10
2022-08-11T04:42:37.697Z,91.20
2022-08-11T04:47:09.719Z,91.30
2022-08-11T04:51:49.649Z,91.30
2022-08-11T04:56:30.464Z,91.20
2022-08-11T05:00:56.619Z,91.00
2022-08-11T05:05:22.328Z,90.90
2022-08-11T05:09:32.406Z,91.30
2022-08-11T05:13:53.743Z,91.10
2022-08-11T05:18:16.853Z,90.90
2022-08-11T05:22:38.212Z,90.90
2022-08-11T05:27:03.415Z,90.60
2022-08-11T05:31:27.056Z,90.70
2022-08-11T05:36:00.734Z,90.60
2022-08-11T05:40:16.301Z,91.00
2022-08-11T05:44:39.406Z,90.70
2022-08-11T05:49:00.358Z,90.80
2022-08-11T05:53:21.623Z,90.90
2022-08-11T05:57:48.972Z,90.90
2022-08-11T06:01:51.473Z,90.80
2022-08-11T06:05:54.769Z,90.90
2022-08-11T06:09:59.269Z,90.80
2022-08-11T06:14:03.449Z,90.50
2022-08-11T06:18:12.246Z,90.60
2022-08-11T06:22:20.973Z,90.60
2022-08-11T06:26:23.891Z,90.50
2022-08-11T06:30:35.280Z,90.50
2022-08-11T06:34:43.127Z,90.20
2022-08-11T06:38:54.243Z,90.30
2022-08-11T06:42:58.742Z,90.30
2022-08-11T06:47:06.632Z,90.40
2022-08-11T06:51:13.684Z,90.30
2022-08-11T06:55:56.547Z,90.40
2022-08-11T07:00:29.032Z,90.20
2022-08-11T07:04:33.474Z,90.10
2022-08-11T07:09:02.167Z,90.20
2022-08-11T07:13:44.125Z,90.10
2022-08-11T07:22:10.843Z,90.00
2022-08-11T07:42:58.239Z,90.00
2022-08-11T07:47:19.198Z,90.30
2022-08-11T07:51:40.404Z,90.60
2022-08-11T07:55:50.293Z,90.30
2022-08-11T08:00:14.893Z,90.50
2022-08-11T08:04:37.509Z,90.60
2022-08-11T08:08:58.295Z,90.60
2022-08-11T08:13:21.464Z,90.70
2022-08-11T08:17:43.869Z,91.00
2022-08-11T08:21:46.781Z,90.80
2022-08-11T08:25:52.928Z,90.90
2022-08-11T08:30:13.355Z,90.90
2022-08-11T08:34:17.709Z,90.90
2022-08-11T08:38:20.670Z,90.80
2022-08-11T08:42:26.063Z,91.10
2022-08-11T08:46:31.487Z,90.90
2022-08-11T08:50:54.637Z,90.80
2022-08-11T08:54:59.245Z,90.90
2022-08-11T08:59:02.852Z,90.90
2022-08-11T09:03:29.561Z,91.00
2022-08-11T09:07:38.435Z,91.10
2022-08-11T09:11:53.584Z,90.80
2022-08-11T09:15:56.615Z,90.90
2022-08-11T09:20:01.560Z,91.00
2022-08-11T09:24:26.382Z,90.80
2022-08-11T09:28:30.993Z,91.00
2022-08-11T09:32:34.404Z,90.60
2022-08-11T09:36:54.796Z,90.50
2022-08-11T09:41:00.169Z,90.40
2022-08-11T09:45:04.584Z,90.70
2022-08-11T09:49:07.511Z,90.40
2022-08-11T09:53:34.794Z,90.40
2022-08-11T09:57:57.115Z,89.00
2022-08-11T10:02:01.466Z,88.70
2022-08-11T10:06:34.175Z,88.40
2022-08-11T10:10:38.447Z,88.70
2022-08-11T10:15:02.669Z,88.80
2022-08-11T10:19:05.749Z,88.60
2022-08-11T10:23:27.003Z,87.40
2022-08-11T10:28:18.498Z,88.10
2022-08-11T10:32:13.769Z,88.30
2022-08-11T10:36:19.196Z,87.60
2022-08-11T10:40:23.519Z,86.70
2022-08-11T10:44:26.677Z,84.70
2022-08-11T10:48:32.948Z,82.70
2022-08-11T10:52:53.925Z,82.90
2022-08-11T10:57:14.488Z,83.10
2022-08-11T11:01:18.129Z,83.80
2022-08-11T11:05:25.065Z,82.70
2022-08-11T11:09:32.607Z,81.30
2022-08-11T11:13:55.275Z,76.60
2022-08-11T11:18:04.728Z,81.40
2022-08-11T11:22:24.823Z,82.10
2022-08-11T11:26:32.108Z,83.00
2022-08-11T11:30:38.857Z,79.00
2022-08-11T11:34:54.013Z,80.80
2022-08-11T11:38:59.015Z,78.70
2022-08-11T11:43:02.351Z,79.50
2022-08-11T11:47:06.464Z,77.00
2022-08-11T11:51:14.129Z,79.50
2022-08-11T11:55:19.025Z,78.90
2022-08-11T11:59:40.034Z,79.10
2022-08-11T12:03:44.948Z,77.10
2022-08-11T12:08:13.037Z,78.10
2022-08-11T12:12:35.436Z,76.40
2022-08-11T12:16:39.270Z,78.30
2022-08-11T12:20:42.187Z,76.30
2022-08-11T12:25:04.708Z,76.70
2022-08-11T12:29:10.835Z,76.60
2022-08-11T12:33:13.752Z,75.90
2022-08-11T12:37:32.066Z,75.10
2022-08-11T12:42:04.733Z,70.60
2022-08-11T12:46:10.298Z,72.20
2022-08-11T12:50:30.798Z,71.00
2022-08-11T12:54:35.311Z,74.10
2022-08-11T12:58:40.570Z,73.70
2022-08-11T13:03:02.919Z,74.50
2022-08-11T13:07:05.799Z,73.30
2022-08-11T13:11:56.980Z,73.20
2022-08-11T13:15:52.272Z,72.50
2022-08-11T13:19:56.876Z,71.90
2022-08-11T13:24:03.011Z,72.20
2022-08-11T13:28:06.598Z,70.90
2022-08-11T13:32:11.323Z,72.30
2022-08-11T13:36:18.845Z,72.10
2022-08-11T13:40:33.168Z,72.10
2022-08-11T13:44:45.863Z,68.70
2022-08-11T13:48:48.763Z,70.30
2022-08-11T13:53:02.378Z,71.30
2022-08-11T13:57:08.334Z,70.20
2022-08-11T14:02:03.809Z,69.30
2022-08-11T14:05:40.351Z,70.50
2022-08-11T14:09:56.560Z,71.70
2022-08-11T14:14:00.581Z,71.60
2022-08-11T14:18:05.458Z,70.90
2022-08-11T14:22:08.869Z,71.80
2022-08-11T14:26:27.965Z,71.30
2022-08-11T14:30:48.221Z,70.30
2022-08-11T14:34:51.492Z,68.90
2022-08-11T14:38:55.097Z,70.20
2022-08-11T14:43:18.045Z,68.10
2022-08-11T14:47:23.739Z,69.80
2022-08-11T14:51:28.428Z,68.00
2022-08-11T14:55:50.304Z,69.40
2022-08-11T14:59:57.295Z,67.10
2022-08-11T15:04:27.325Z,68.80
2022-08-11T15:08:44.939Z,69.00
2022-08-11T15:12:48.137Z,68.30
2022-08-11T15:17:11.706Z,66.70
2022-08-11T15:21:32.225Z,67.20
2022-08-11T15:25:35.763Z,64.90
2022-08-11T15:29:53.774Z,65.50
2022-08-11T15:34:23.919Z,65.90
2022-08-11T15:38:27.950Z,65.30
2022-08-11T15:42:48.882Z,65.70
2022-08-11T15:46:55.318Z,64.90
2022-08-11T15:51:03.319Z,66.00
2022-08-11T15:55:08.708Z,65.20
2022-08-11T15:59:41.896Z,65.50
2022-08-11T16:04:09.091Z,65.50
2022-08-11T16:08:15.606Z,67.60
2022-08-11T16:12:20.793Z,66.50
2022-08-11T16:16:22.942Z,67.90
2022-08-11T16:20:27.094Z,65.70
2022-08-11T16:27:01.791Z,67.90
2022-08-11T16:28:56.320Z,65.10
2022-08-11T16:32:59.883Z,67.80
2022-08-11T16:37:41.692Z,61.60
2022-08-11T16:42:03.934Z,62.60
2022-08-11T16:46:25.622Z,65.10
2022-08-11T16:50:30.138Z,63.90
2022-08-11T16:54:33.611Z,62.70
2022-08-11T16:58:57.291Z,63.10
2022-08-11T17:03:28.386Z,62.30
2022-08-11T17:07:49.039Z,59.10
2022-08-11T17:12:11.380Z,60.10
2022-08-11T17:16:17.527Z,60.40
2022-08-11T17:20:39.862Z,62.00
2022-08-11T17:24:45.844Z,60.70
2022-08-11T17:28:51.457Z,59.70
2022-08-11T17:33:13.229Z,60.30
2022-08-11T17:37:16.584Z,59.90
2022-08-11T17:41:37.773Z,60.60
2022-08-11T17:45:58.578Z,59.80
2022-08-11T17:50:15.956Z,59.10
2022-08-11T17:54:39.863Z,60.00
2022-08-11T17:59:02.063Z,61.10
2022-08-11T18:03:25.669Z,60.20
2022-08-11T18:07:47.435Z,61.00
2022-08-11T18:12:12.287Z,60.90
2022-08-11T18:16:33.122Z,62.10
2022-08-11T18:20:54.451Z,62.00
2022-08-11T18:25:19.864Z,62.50
2022-08-11T18:29:42.229Z,63.10
2022-08-11T18:34:07.486Z,63.30
2022-08-11T18:38:29.477Z,63.70
2022-08-11T18:42:57.752Z,64.00
2022-08-11T18:47:19.079Z,64.30
2022-08-11T18:51:45.454Z,64.60
2022-08-11T18:56:07.063Z,64.70
2022-08-11T19:00:31.360Z,65.00
2022-08-11T19:04:51.844Z,65.30
2022-08-11T19:09:13.572Z,65.60
2022-08-11T19:13:34.012Z,65.90
2022-08-11T19:17:58.931Z,66.10
2022-08-11T19:22:20.695Z,66.50
2022-08-11T19:26:42.424Z,66.80
2022-08-11T19:31:03.200Z,67.20
2022-08-11T19:35:25.453Z,67.40
2022-08-11T19:39:46.325Z,67.70
2022-08-11T19:44:08.025Z,68.20
2022-08-11T19:48:32.253Z,68.90
2022-08-11T19:52:55.455Z,68.30
2022-08-11T19:57:18.216Z,69.30
2022-08-11T20:01:38.435Z,69.90
2022-08-11T20:06:19.953Z,70.40
2022-08-11T20:10:42.192Z,70.00
2022-08-11T20:15:02.879Z,70.30
2022-08-11T20:19:26.105Z,70.40
2022-08-11T20:24:05.534Z,70.40
2022-08-11T20:28:28.082Z,70.60
2022-08-11T20:32:48.535Z,71.30
2022-08-11T20:37:09.803Z,71.10
2022-08-11T20:41:30.112Z,71.50
2022-08-11T20:45:55.238Z,71.90
2022-08-11T20:54:59.241Z,70.90
2022-08-11T20:59:21.778Z,71.20
2022-08-11T21:03:44.809Z,72.30
2022-08-11T21:08:07.559Z,72.90
2022-08-11T21:12:28.898Z,73.00
2022-08-11T21:16:53.201Z,72.90
2022-08-11T21:21:19.655Z,74.10
2022-08-11T21:25:41.113Z,74.00
2022-08-11T21:30:02.700Z,74.80
2022-08-11T21:34:23.226Z,75.10
2022-08-11T21:38:46.746Z,75.30
2022-08-11T21:43:07.557Z,75.40
2022-08-11T21:47:43.307Z,75.50
2022-08-11T21:52:04.249Z,76.20
2022-08-11T21:56:27.607Z,75.60
2022-08-11T22:00:48.721Z,75.90
2022-08-11T22:05:10.061Z,75.80
2022-08-11T22:09:31.990Z,76.10
2022-08-11T22:14:05.699Z,77.20
2022-08-11T22:18:28.620Z,75.80
2022-08-11T22:22:53.218Z,76.70
2022-08-11T22:27:14.135Z,77.30
2022-08-11T22:31:36.024Z,77.40
2022-08-11T22:35:57.246Z,77.90
2022-08-11T22:40:17.744Z,78.20
2022-08-11T22:44:37.934Z,79.30
2022-08-11T22:49:00.357Z,78.20
2022-08-11T22:53:21.336Z,78.50
2022-08-11T22:58:00.534Z,79.20
2022-08-11T23:02:22.633Z,79.50
2022-08-11T23:06:44.262Z,79.40
2022-08-11T23:11:04.920Z,79.50
2022-08-11T23:15:25.719Z,79.00
2022-08-11T23:20:12.067Z,78.80
2022-08-11T23:24:29.424Z,78.60
2022-08-11T23:28:51.292Z,79.10
2022-08-11T23:33:14.974Z,78.90
2022-08-11T23:37:35.176Z,79.50
2022-08-11T23:42:01.187Z,80.40
2022-08-11T23:46:24.299Z,80.40
2022-08-11T23:50:45.204Z,80.60
2022-08-11T23:55:05.552Z,80.60
2022-08-11T23:59:28.809Z,81.80
